sensor_id;sensor_type;location;lat;lon;timestamp;temperature;humidity
25188;DHT22;13141;50.414;8.050;2023-05-16T00:02:05;15.20;99.90
25188;DHT22;13141;50.414;8.050;2023-05-16T00:04:30;15.20;99.90
25188;DHT22;13141;50.414;8.050;2023-05-16T00:06:58;15.20;99.90
25188;DHT22;13141;50.414;8.050;2023-05-16T00:09:23;15.20;99.90
25188;DHT22;13141;50.414;8.050;2023-05-16T00:11:49;15.10;99.90
25188;DHT22;13141;50.414;8.050;2023-05-16T00:14:15;15.00;99.90
25188;DHT22;13141;50.414;8.050;2023-05-16T00:16:40;15.00;99.90
25188;DHT22;13141;50.414;8.050;2023-05-16T00:19:06;14.90;99.90
25188;DHT22;13141;50.414;8.050;2023-05-16T00:21:32;14.90;99.90
25188;DHT22;13141;50.414;8.050;2023-05-16T00:23:59;14.90;99.90
25188;DHT22;13141;50.414;8.050;2023-05-16T00:26:24;14.90;99.90
25188;DHT22;13141;50.414;8.050;2023-05-16T00:28:50;14.90;99.90
25188;DHT22;13141;50.414;8.050;2023-05-16T00:31:16;14.80;99.90
25188;DHT22;13141;50.414;8.050;2023-05-16T00:33:41;14.80;99.90
25188;DHT22;13141;50.414;8.050;2023-05-16T00:36:07;14.70;99.90
25188;DHT22;13141;50.414;8.050;2023-05-16T00:38:33;14.70;99.90
25188;DHT22;13141;50.414;8.050;2023-05-16T00:41:00;14.80;99.90
25188;DHT22;13141;50.414;8.050;2023-05-16T00:43:25;14.70;99.90
25188;DHT22;13141;50.414;8.050;2023-05-16T00:45:51;14.70;99.90
25188;DHT22;13141;50.414;8.050;2023-05-16T00:48:17;14.80;99.90
25188;DHT22;13141;50.414;8.050;2023-05-16T00:50:43;14.70;99.90
25188;DHT22;13141;50.414;8.050;2023-05-16T00:53:09;14.70;99.90
25188;DHT22;13141;50.414;8.050;2023-05-16T00:55:35;14.70;99.90
25188;DHT22;13141;50.414;8.050;2023-05-16T00:58:04;14.60;99.90
25188;DHT22;13141;50.414;8.050;2023-05-16T01:00:31;14.60;99.90
25188;DHT22;13141;50.414;8.050;2023-05-16T01:02:56;14.60;99.90
25188;DHT22;13141;50.414;8.050;2023-05-16T01:05:22;14.50;99.90
25188;DHT22;13141;50.414;8.050;2023-05-16T01:07:48;14.50;99.90
25188;DHT22;13141;50.414;8.050;2023-05-16T01:10:14;14.50;99.90
25188;DHT22;13141;50.414;8.050;2023-05-16T01:12:47;14.60;99.90
25188;DHT22;13141;50.414;8.050;2023-05-16T01:15:22;14.60;99.90
25188;DHT22;13141;50.414;8.050;2023-05-16T01:17:54;14.60;99.90
25188;DHT22;13141;50.414;8.050;2023-05-16T01:20:31;14.50;99.90
25188;DHT22;13141;50.414;8.050;2023-05-16T01:23:05;14.50;99.90
25188;DHT22;13141;50.414;8.050;2023-05-16T01:25:54;14.50;99.90
25188;DHT22;13141;50.414;8.050;2023-05-16T01:28:22;14.50;99.90
25188;DHT22;13141;50.414;8.050;2023-05-16T01:30:50;14.50;99.90
25188;DHT22;13141;50.414;8.050;2023-05-16T01:33:16;14.60;99.90
25188;DHT22;13141;50.414;8.050;2023-05-16T01:35:46;14.60;99.90
25188;DHT22;13141;50.414;8.050;2023-05-16T01:38:17;14.60;99.90
25188;DHT22;13141;50.414;8.050;2023-05-16T01:40:52;14.50;99.90
25188;DHT22;13141;50.414;8.050;2023-05-16T01:43:29;14.50;99.90
25188;DHT22;13141;50.414;8.050;2023-05-16T01:46:02;14.40;99.90
25188;DHT22;13141;50.414;8.050;2023-05-16T01:48:34;14.40;99.90
25188;DHT22;13141;50.414;8.050;2023-05-16T01:51:01;14.40;99.90
25188;DHT22;13141;50.414;8.050;2023-05-16T01:53:32;14.30;99.90
25188;DHT22;13141;50.414;8.050;2023-05-16T01:56:00;14.40;99.90
25188;DHT22;13141;50.414;8.050;2023-05-16T01:58:31;14.40;99.90
25188;DHT22;13141;50.414;8.050;2023-05-16T02:01:00;14.40;99.90
25188;DHT22;13141;50.414;8.050;2023-05-16T02:03:26;14.40;99.90
25188;DHT22;13141;50.414;8.050;2023-05-16T02:05:52;14.30;99.90
25188;DHT22;13141;50.414;8.050;2023-05-16T02:08:17;14.40;99.90
25188;DHT22;13141;50.414;8.050;2023-05-16T02:10:43;14.30;99.90
25188;DHT22;13141;50.414;8.050;2023-05-16T02:13:09;14.30;99.90
25188;DHT22;13141;50.414;8.050;2023-05-16T02:15:36;14.50;99.90
25188;DHT22;13141;50.414;8.050;2023-05-16T02:18:01;14.30;99.90
25188;DHT22;13141;50.414;8.050;2023-05-16T02:20:27;14.60;99.90
25188;DHT22;13141;50.414;8.050;2023-05-16T02:22:53;14.30;99.90
25188;DHT22;13141;50.414;8.050;2023-05-16T02:25:19;14.30;99.90
25188;DHT22;13141;50.414;8.050;2023-05-16T02:27:44;14.30;99.90
25188;DHT22;13141;50.414;8.050;2023-05-16T02:30:10;14.30;99.90
25188;DHT22;13141;50.414;8.050;2023-05-16T02:32:38;14.20;99.90
25188;DHT22;13141;50.414;8.050;2023-05-16T02:35:04;14.20;99.90
25188;DHT22;13141;50.414;8.050;2023-05-16T02:37:30;14.30;99.90
25188;DHT22;13141;50.414;8.050;2023-05-16T02:39:55;14.30;99.90
25188;DHT22;13141;50.414;8.050;2023-05-16T02:42:21;14.30;99.90
25188;DHT22;13141;50.414;8.050;2023-05-16T02:44:47;14.30;99.90
25188;DHT22;13141;50.414;8.050;2023-05-16T02:47:12;14.20;99.90
25188;DHT22;13141;50.414;8.050;2023-05-16T02:49:39;14.20;99.90
25188;DHT22;13141;50.414;8.050;2023-05-16T02:52:05;14.20;99.90
25188;DHT22;13141;50.414;8.050;2023-05-16T02:54:31;14.20;99.90
25188;DHT22;13141;50.414;8.050;2023-05-16T02:56:56;14.20;99.90
25188;DHT22;13141;50.414;8.050;2023-05-16T02:59:22;14.10;99.90
25188;DHT22;13141;50.414;8.050;2023-05-16T03:01:47;14.10;99.90
25188;DHT22;13141;50.414;8.050;2023-05-16T03:04:13;14.10;99.90
25188;DHT22;13141;50.414;8.050;2023-05-16T03:06:40;14.10;99.90
25188;DHT22;13141;50.414;8.050;2023-05-16T03:09:06;14.10;99.90
25188;DHT22;13141;50.414;8.050;2023-05-16T03:11:31;14.10;99.90
25188;DHT22;13141;50.414;8.050;2023-05-16T03:13:57;14.00;99.90
25188;DHT22;13141;50.414;8.050;2023-05-16T03:16:22;14.00;99.90
25188;DHT22;13141;50.414;8.050;2023-05-16T03:18:48;14.00;99.90
25188;DHT22;13141;50.414;8.050;2023-05-16T03:21:14;13.90;99.90
25188;DHT22;13141;50.414;8.050;2023-05-16T03:23:41;13.90;99.90
25188;DHT22;13141;50.414;8.050;2023-05-16T03:26:07;13.90;99.90
25188;DHT22;13141;50.414;8.050;2023-05-16T03:28:33;13.80;99.90
25188;DHT22;13141;50.414;8.050;2023-05-16T03:30:58;13.80;99.90
25188;DHT22;13141;50.414;8.050;2023-05-16T03:33:24;13.80;99.90
25188;DHT22;13141;50.414;8.050;2023-05-16T03:35:50;13.70;99.90
25188;DHT22;13141;50.414;8.050;2023-05-16T03:38:15;13.70;99.90
25188;DHT22;13141;50.414;8.050;2023-05-16T03:40:43;13.60;99.90
25188;DHT22;13141;50.414;8.050;2023-05-16T03:43:10;13.60;99.90
25188;DHT22;13141;50.414;8.050;2023-05-16T03:45:36;13.60;99.90
25188;DHT22;13141;50.414;8.050;2023-05-16T03:48:01;13.50;99.90
25188;DHT22;13141;50.414;8.050;2023-05-16T03:50:27;13.40;99.90
25188;DHT22;13141;50.414;8.050;2023-05-16T03:52:53;13.40;99.90
25188;DHT22;13141;50.414;8.050;2023-05-16T03:55:18;13.40;99.90
25188;DHT22;13141;50.414;8.050;2023-05-16T03:57:46;13.40;99.90
25188;DHT22;13141;50.414;8.050;2023-05-16T04:00:12;13.50;99.90
25188;DHT22;13141;50.414;8.050;2023-05-16T04:02:38;13.40;99.90
25188;DHT22;13141;50.414;8.050;2023-05-16T04:05:05;13.00;99.90
25188;DHT22;13141;50.414;8.050;2023-05-16T04:07:31;13.40;99.90
25188;DHT22;13141;50.414;8.050;2023-05-16T04:09:57;13.40;99.90
25188;DHT22;13141;50.414;8.050;2023-05-16T04:12:22;13.40;99.90
25188;DHT22;13141;50.414;8.050;2023-05-16T04:14:49;13.40;99.90
25188;DHT22;13141;50.414;8.050;2023-05-16T04:17:15;13.40;99.90
25188;DHT22;13141;50.414;8.050;2023-05-16T04:19:41;13.30;99.90
25188;DHT22;13141;50.414;8.050;2023-05-16T04:22:07;13.30;99.90
25188;DHT22;13141;50.414;8.050;2023-05-16T04:24:32;13.30;99.90
25188;DHT22;13141;50.414;8.050;2023-05-16T04:26:59;13.30;99.90
25188;DHT22;13141;50.414;8.050;2023-05-16T04:29:25;13.30;99.90
25188;DHT22;13141;50.414;8.050;2023-05-16T04:31:52;13.20;99.90
25188;DHT22;13141;50.414;8.050;2023-05-16T04:34:17;13.20;99.90
25188;DHT22;13141;50.414;8.050;2023-05-16T04:36:46;13.20;99.90
25188;DHT22;13141;50.414;8.050;2023-05-16T04:39:12;13.10;99.90
25188;DHT22;13141;50.414;8.050;2023-05-16T04:41:37;13.10;99.90
25188;DHT22;13141;50.414;8.050;2023-05-16T04:44:06;13.10;99.90
25188;DHT22;13141;50.414;8.050;2023-05-16T04:46:31;13.10;99.90
25188;DHT22;13141;50.414;8.050;2023-05-16T04:48:59;13.20;99.90
25188;DHT22;13141;50.414;8.050;2023-05-16T04:51:25;13.10;99.90
25188;DHT22;13141;50.414;8.050;2023-05-16T04:53:50;13.10;99.90
25188;DHT22;13141;50.414;8.050;2023-05-16T04:56:16;13.10;99.90
25188;DHT22;13141;50.414;8.050;2023-05-16T04:58:41;13.10;99.90
25188;DHT22;13141;50.414;8.050;2023-05-16T05:01:07;13.10;99.90
25188;DHT22;13141;50.414;8.050;2023-05-16T05:03:33;13.10;99.90
25188;DHT22;13141;50.414;8.050;2023-05-16T05:06:00;13.10;99.90
25188;DHT22;13141;50.414;8.050;2023-05-16T05:08:26;13.10;99.90
25188;DHT22;13141;50.414;8.050;2023-05-16T05:10:52;13.00;99.90
25188;DHT22;13141;50.414;8.050;2023-05-16T05:13:17;13.00;99.90
25188;DHT22;13141;50.414;8.050;2023-05-16T05:15:43;13.00;99.90
25188;DHT22;13141;50.414;8.050;2023-05-16T05:18:09;13.00;99.90
25188;DHT22;13141;50.414;8.050;2023-05-16T05:20:34;13.00;99.90
25188;DHT22;13141;50.414;8.050;2023-05-16T05:23:02;13.00;99.90
25188;DHT22;13141;50.414;8.050;2023-05-16T05:25:27;13.00;99.90
25188;DHT22;13141;50.414;8.050;2023-05-16T05:27:53;13.00;99.90
25188;DHT22;13141;50.414;8.050;2023-05-16T05:30:18;13.00;99.90
25188;DHT22;13141;50.414;8.050;2023-05-16T05:32:44;13.00;99.90
25188;DHT22;13141;50.414;8.050;2023-05-16T05:35:10;13.00;99.90
25188;DHT22;13141;50.414;8.050;2023-05-16T05:37:36;13.00;99.90
25188;DHT22;13141;50.414;8.050;2023-05-16T05:40:04;13.00;99.90
25188;DHT22;13141;50.414;8.050;2023-05-16T05:42:29;13.00;99.90
25188;DHT22;13141;50.414;8.050;2023-05-16T05:44:55;13.00;99.90
25188;DHT22;13141;50.414;8.050;2023-05-16T05:47:21;13.00;99.90
25188;DHT22;13141;50.414;8.050;2023-05-16T05:49:47;13.00;99.90
25188;DHT22;13141;50.414;8.050;2023-05-16T05:52:13;13.10;99.90
25188;DHT22;13141;50.414;8.050;2023-05-16T05:54:38;13.00;99.90
25188;DHT22;13141;50.414;8.050;2023-05-16T05:57:08;13.00;99.90
25188;DHT22;13141;50.414;8.050;2023-05-16T05:59:34;13.00;99.90
25188;DHT22;13141;50.414;8.050;2023-05-16T06:01:59;13.00;99.90
25188;DHT22;13141;50.414;8.050;2023-05-16T06:04:25;13.00;99.90
25188;DHT22;13141;50.414;8.050;2023-05-16T06:06:51;13.10;99.90
25188;DHT22;13141;50.414;8.050;2023-05-16T06:09:16;13.10;99.90
25188;DHT22;13141;50.414;8.050;2023-05-16T06:11:42;13.10;99.90
25188;DHT22;13141;50.414;8.050;2023-05-16T06:14:09;13.10;99.90
25188;DHT22;13141;50.414;8.050;2023-05-16T06:16:35;13.10;99.90
25188;DHT22;13141;50.414;8.050;2023-05-16T06:19:02;13.10;99.90
25188;DHT22;13141;50.414;8.050;2023-05-16T06:21:28;13.10;99.90
25188;DHT22;13141;50.414;8.050;2023-05-16T06:23:54;13.00;99.90
25188;DHT22;13141;50.414;8.050;2023-05-16T06:26:19;13.00;99.90
25188;DHT22;13141;50.414;8.050;2023-05-16T06:28:46;13.00;99.90
25188;DHT22;13141;50.414;8.050;2023-05-16T06:31:13;12.70;99.90
25188;DHT22;13141;50.414;8.050;2023-05-16T06:33:38;13.00;99.90
25188;DHT22;13141;50.414;8.050;2023-05-16T06:36:05;13.00;99.90
25188;DHT22;13141;50.414;8.050;2023-05-16T06:38:31;13.00;99.90
25188;DHT22;13141;50.414;8.050;2023-05-16T06:40:56;13.10;99.90
25188;DHT22;13141;50.414;8.050;2023-05-16T06:43:22;13.10;99.90
25188;DHT22;13141;50.414;8.050;2023-05-16T06:45:48;13.20;99.90
25188;DHT22;13141;50.414;8.050;2023-05-16T06:48:16;13.40;99.90
25188;DHT22;13141;50.414;8.050;2023-05-16T06:50:42;13.20;99.90
25188;DHT22;13141;50.414;8.050;2023-05-16T06:53:08;13.20;99.90
25188;DHT22;13141;50.414;8.050;2023-05-16T06:55:33;13.20;99.90
25188;DHT22;13141;50.414;8.050;2023-05-16T06:57:59;13.20;99.90
25188;DHT22;13141;50.414;8.050;2023-05-16T07:00:25;12.70;99.90
25188;DHT22;13141;50.414;8.050;2023-05-16T07:02:51;13.10;99.90
25188;DHT22;13141;50.414;8.050;2023-05-16T07:05:18;13.10;99.90
25188;DHT22;13141;50.414;8.050;2023-05-16T07:07:44;13.00;99.90
25188;DHT22;13141;50.414;8.050;2023-05-16T07:10:10;13.00;99.90
25188;DHT22;13141;50.414;8.050;2023-05-16T07:12:41;13.00;99.90
25188;DHT22;13141;50.414;8.050;2023-05-16T07:15:07;13.00;99.90
25188;DHT22;13141;50.414;8.050;2023-05-16T07:17:33;12.90;99.90
25188;DHT22;13141;50.414;8.050;2023-05-16T07:19:59;12.90;99.90
25188;DHT22;13141;50.414;8.050;2023-05-16T07:22:26;12.90;99.90
25188;DHT22;13141;50.414;8.050;2023-05-16T07:24:52;12.90;99.90
25188;DHT22;13141;50.414;8.050;2023-05-16T07:27:18;13.00;99.90
25188;DHT22;13141;50.414;8.050;2023-05-16T07:29:43;13.10;99.90
25188;DHT22;13141;50.414;8.050;2023-05-16T07:32:09;13.10;99.90
25188;DHT22;13141;50.414;8.050;2023-05-16T07:34:35;13.20;99.90
25188;DHT22;13141;50.414;8.050;2023-05-16T07:37:00;13.30;99.90
25188;DHT22;13141;50.414;8.050;2023-05-16T07:39:27;13.30;99.90
25188;DHT22;13141;50.414;8.050;2023-05-16T07:41:53;13.40;99.90
25188;DHT22;13141;50.414;8.050;2023-05-16T07:44:19;13.50;99.90
25188;DHT22;13141;50.414;8.050;2023-05-16T07:46:45;13.60;99.90
25188;DHT22;13141;50.414;8.050;2023-05-16T07:49:10;13.60;99.90
25188;DHT22;13141;50.414;8.050;2023-05-16T07:51:36;13.60;99.90
25188;DHT22;13141;50.414;8.050;2023-05-16T07:54:02;13.50;99.90
25188;DHT22;13141;50.414;8.050;2023-05-16T07:56:29;13.40;99.90
25188;DHT22;13141;50.414;8.050;2023-05-16T07:58:55;13.40;99.90
25188;DHT22;13141;50.414;8.050;2023-05-16T08:01:20;13.50;99.90
25188;DHT22;13141;50.414;8.050;2023-05-16T08:03:46;13.50;99.90
25188;DHT22;13141;50.414;8.050;2023-05-16T08:06:12;13.60;99.90
25188;DHT22;13141;50.414;8.050;2023-05-16T08:08:37;13.40;99.90
25188;DHT22;13141;50.414;8.050;2023-05-16T08:11:03;13.30;99.90
25188;DHT22;13141;50.414;8.050;2023-05-16T08:13:30;13.20;99.90
25188;DHT22;13141;50.414;8.050;2023-05-16T08:15:56;13.10;99.90
25188;DHT22;13141;50.414;8.050;2023-05-16T08:18:22;13.10;99.90
25188;DHT22;13141;50.414;8.050;2023-05-16T08:20:47;13.10;99.90
25188;DHT22;13141;50.414;8.050;2023-05-16T08:23:13;13.20;99.90
25188;DHT22;13141;50.414;8.050;2023-05-16T08:25:39;13.40;99.90
25188;DHT22;13141;50.414;8.050;2023-05-16T08:28:05;13.50;99.90
25188;DHT22;13141;50.414;8.050;2023-05-16T08:30:32;13.70;99.90
25188;DHT22;13141;50.414;8.050;2023-05-16T08:32:57;13.80;99.90
25188;DHT22;13141;50.414;8.050;2023-05-16T08:35:23;13.80;99.90
25188;DHT22;13141;50.414;8.050;2023-05-16T08:37:49;14.10;99.90
25188;DHT22;13141;50.414;8.050;2023-05-16T08:40:15;14.20;99.90
25188;DHT22;13141;50.414;8.050;2023-05-16T08:42:41;14.20;99.90
25188;DHT22;13141;50.414;8.050;2023-05-16T08:45:07;14.20;99.90
25188;DHT22;13141;50.414;8.050;2023-05-16T08:47:35;14.40;99.90
25188;DHT22;13141;50.414;8.050;2023-05-16T08:50:04;14.40;99.90
25188;DHT22;13141;50.414;8.050;2023-05-16T08:52:31;14.50;99.90
25188;DHT22;13141;50.414;8.050;2023-05-16T08:55:01;14.60;99.90
25188;DHT22;13141;50.414;8.050;2023-05-16T08:57:30;14.40;99.90
25188;DHT22;13141;50.414;8.050;2023-05-16T08:59:56;14.50;99.90
25188;DHT22;13141;50.414;8.050;2023-05-16T09:02:23;14.50;99.90
25188;DHT22;13141;50.414;8.050;2023-05-16T09:04:50;14.50;99.90
25188;DHT22;13141;50.414;8.050;2023-05-16T09:07:17;14.50;99.90
25188;DHT22;13141;50.414;8.050;2023-05-16T09:09:42;14.60;99.90
25188;DHT22;13141;50.414;8.050;2023-05-16T09:12:08;14.60;99.90
25188;DHT22;13141;50.414;8.050;2023-05-16T09:14:34;14.70;99.90
25188;DHT22;13141;50.414;8.050;2023-05-16T09:17:04;14.80;99.90
25188;DHT22;13141;50.414;8.050;2023-05-16T09:19:36;14.90;99.90
25188;DHT22;13141;50.414;8.050;2023-05-16T09:22:03;15.10;99.90
25188;DHT22;13141;50.414;8.050;2023-05-16T09:24:30;15.30;99.90
25188;DHT22;13141;50.414;8.050;2023-05-16T09:26:56;15.60;99.90
25188;DHT22;13141;50.414;8.050;2023-05-16T09:29:22;15.60;99.90
25188;DHT22;13141;50.414;8.050;2023-05-16T09:31:48;16.40;99.90
25188;DHT22;13141;50.414;8.050;2023-05-16T09:34:14;16.70;99.90
25188;DHT22;13141;50.414;8.050;2023-05-16T09:36:40;16.90;99.80
25188;DHT22;13141;50.414;8.050;2023-05-16T09:39:07;17.30;99.90
25188;DHT22;13141;50.414;8.050;2023-05-16T09:41:33;17.60;99.90
25188;DHT22;13141;50.414;8.050;2023-05-16T09:44:03;17.50;98.60
25188;DHT22;13141;50.414;8.050;2023-05-16T09:46:29;17.30;98.70
25188;DHT22;13141;50.414;8.050;2023-05-16T09:48:54;17.40;99.70
25188;DHT22;13141;50.414;8.050;2023-05-16T09:51:23;17.40;98.50
25188;DHT22;13141;50.414;8.050;2023-05-16T09:53:48;17.30;98.70
25188;DHT22;13141;50.414;8.050;2023-05-16T09:56:16;17.70;98.40
25188;DHT22;13141;50.414;8.050;2023-05-16T09:58:43;18.00;97.20
25188;DHT22;13141;50.414;8.050;2023-05-16T10:01:10;18.40;98.70
25188;DHT22;13141;50.414;8.050;2023-05-16T10:03:37;18.60;97.30
25188;DHT22;13141;50.414;8.050;2023-05-16T10:06:03;18.70;96.60
25188;DHT22;13141;50.414;8.050;2023-05-16T10:08:31;19.00;97.30
25188;DHT22;13141;50.414;8.050;2023-05-16T10:10:57;19.40;97.10
25188;DHT22;13141;50.414;8.050;2023-05-16T10:13:28;19.90;97.00
25188;DHT22;13141;50.414;8.050;2023-05-16T10:15:55;20.20;95.20
25188;DHT22;13141;50.414;8.050;2023-05-16T10:18:22;20.40;96.30
25188;DHT22;13141;50.414;8.050;2023-05-16T10:20:54;20.70;95.40
25188;DHT22;13141;50.414;8.050;2023-05-16T10:23:24;21.00;96.20
25188;DHT22;13141;50.414;8.050;2023-05-16T10:25:51;21.00;96.10
25188;DHT22;13141;50.414;8.050;2023-05-16T10:28:18;20.70;93.70
25188;DHT22;13141;50.414;8.050;2023-05-16T10:30:45;20.30;91.70
25188;DHT22;13141;50.414;8.050;2023-05-16T10:33:13;20.30;94.30
25188;DHT22;13141;50.414;8.050;2023-05-16T10:35:42;20.40;93.00
25188;DHT22;13141;50.414;8.050;2023-05-16T10:38:09;20.40;94.30
25188;DHT22;13141;50.414;8.050;2023-05-16T10:40:35;20.10;93.30
25188;DHT22;13141;50.414;8.050;2023-05-16T10:43:03;20.40;94.10
25188;DHT22;13141;50.414;8.050;2023-05-16T10:45:29;20.80;94.50
25188;DHT22;13141;50.414;8.050;2023-05-16T10:47:58;21.20;93.40
25188;DHT22;13141;50.414;8.050;2023-05-16T10:50:35;21.70;93.80
25188;DHT22;13141;50.414;8.050;2023-05-16T10:53:14;22.20;90.80
25188;DHT22;13141;50.414;8.050;2023-05-16T10:55:44;22.40;93.10
25188;DHT22;13141;50.414;8.050;2023-05-16T10:58:10;22.60;91.50
25188;DHT22;13141;50.414;8.050;2023-05-16T11:00:35;22.70;91.10
25188;DHT22;13141;50.414;8.050;2023-05-16T11:03:05;22.30;89.40
25188;DHT22;13141;50.414;8.050;2023-05-16T11:05:50;22.30;85.20
25188;DHT22;13141;50.414;8.050;2023-05-16T11:08:16;22.50;88.50
25188;DHT22;13141;50.414;8.050;2023-05-16T11:10:42;22.30;84.90
25188;DHT22;13141;50.414;8.050;2023-05-16T11:13:07;21.90;84.60
25188;DHT22;13141;50.414;8.050;2023-05-16T11:15:33;21.40;85.20
25188;DHT22;13141;50.414;8.050;2023-05-16T11:18:08;21.80;86.70
25188;DHT22;13141;50.414;8.050;2023-05-16T11:20:35;22.30;87.00
25188;DHT22;13141;50.414;8.050;2023-05-16T11:23:18;22.80;89.50
25188;DHT22;13141;50.414;8.050;2023-05-16T11:25:45;23.20;85.70
25188;DHT22;13141;50.414;8.050;2023-05-16T11:28:12;23.30;80.00
25188;DHT22;13141;50.414;8.050;2023-05-16T11:30:41;22.90;82.20
25188;DHT22;13141;50.414;8.050;2023-05-16T11:33:10;22.90;85.00
25188;DHT22;13141;50.414;8.050;2023-05-16T11:35:36;22.30;82.80
25188;DHT22;13141;50.414;8.050;2023-05-16T11:38:02;22.10;83.10
25188;DHT22;13141;50.414;8.050;2023-05-16T11:40:27;22.60;85.20
25188;DHT22;13141;50.414;8.050;2023-05-16T11:42:53;22.90;77.90
25188;DHT22;13141;50.414;8.050;2023-05-16T11:45:20;23.40;82.40
25188;DHT22;13141;50.414;8.050;2023-05-16T11:47:47;23.80;85.60
25188;DHT22;13141;50.414;8.050;2023-05-16T11:50:16;24.00;76.60
25188;DHT22;13141;50.414;8.050;2023-05-16T11:52:44;24.20;81.80
25188;DHT22;13141;50.414;8.050;2023-05-16T11:55:10;24.50;81.40
25188;DHT22;13141;50.414;8.050;2023-05-16T11:57:37;24.60;80.80
25188;DHT22;13141;50.414;8.050;2023-05-16T12:00:03;24.30;78.60
25188;DHT22;13141;50.414;8.050;2023-05-16T12:02:30;23.60;73.00
25188;DHT22;13141;50.414;8.050;2023-05-16T12:04:56;23.20;77.40
25188;DHT22;13141;50.414;8.050;2023-05-16T12:07:27;22.90;75.60
25188;DHT22;13141;50.414;8.050;2023-05-16T12:09:53;22.80;78.90
25188;DHT22;13141;50.414;8.050;2023-05-16T12:12:20;22.50;75.50
25188;DHT22;13141;50.414;8.050;2023-05-16T12:14:46;23.00;76.00
25188;DHT22;13141;50.414;8.050;2023-05-16T12:17:12;22.70;75.70
25188;DHT22;13141;50.414;8.050;2023-05-16T12:19:38;22.10;73.60
25188;DHT22;13141;50.414;8.050;2023-05-16T12:22:04;22.10;75.50
25188;DHT22;13141;50.414;8.050;2023-05-16T12:24:31;22.60;78.10
25188;DHT22;13141;50.414;8.050;2023-05-16T12:26:56;23.20;76.30
25188;DHT22;13141;50.414;8.050;2023-05-16T12:29:24;23.40;75.70
25188;DHT22;13141;50.414;8.050;2023-05-16T12:31:52;24.10;74.70
25188;DHT22;13141;50.414;8.050;2023-05-16T12:34:18;23.70;73.40
25188;DHT22;13141;50.414;8.050;2023-05-16T12:36:44;23.60;74.60
25188;DHT22;13141;50.414;8.050;2023-05-16T12:39:11;23.70;76.10
25188;DHT22;13141;50.414;8.050;2023-05-16T12:41:41;23.50;69.90
25188;DHT22;13141;50.414;8.050;2023-05-16T12:44:10;23.40;70.20
25188;DHT22;13141;50.414;8.050;2023-05-16T12:46:40;23.10;70.40
25188;DHT22;13141;50.414;8.050;2023-05-16T12:49:07;23.30;71.80
25188;DHT22;13141;50.414;8.050;2023-05-16T12:51:32;23.10;74.50
25188;DHT22;13141;50.414;8.050;2023-05-16T12:54:07;23.00;72.30
25188;DHT22;13141;50.414;8.050;2023-05-16T12:56:33;23.50;72.50
25188;DHT22;13141;50.414;8.050;2023-05-16T12:59:00;23.90;73.30
25188;DHT22;13141;50.414;8.050;2023-05-16T13:01:25;23.70;69.40
25188;DHT22;13141;50.414;8.050;2023-05-16T13:03:51;23.40;67.70
25188;DHT22;13141;50.414;8.050;2023-05-16T13:06:17;22.90;68.60
25188;DHT22;13141;50.414;8.050;2023-05-16T13:08:43;22.40;68.00
25188;DHT22;13141;50.414;8.050;2023-05-16T13:11:08;21.90;69.00
25188;DHT22;13141;50.414;8.050;2023-05-16T13:13:34;22.00;71.40
25188;DHT22;13141;50.414;8.050;2023-05-16T13:16:01;22.50;69.50
25188;DHT22;13141;50.414;8.050;2023-05-16T13:18:27;22.80;71.60
25188;DHT22;13141;50.414;8.050;2023-05-16T13:20:53;23.30;69.80
25188;DHT22;13141;50.414;8.050;2023-05-16T13:23:18;23.80;69.20
25188;DHT22;13141;50.414;8.050;2023-05-16T13:25:44;24.30;71.30
25188;DHT22;13141;50.414;8.050;2023-05-16T13:28:10;24.40;68.20
25188;DHT22;13141;50.414;8.050;2023-05-16T13:30:35;24.10;67.10
25188;DHT22;13141;50.414;8.050;2023-05-16T13:33:03;24.20;69.10
25188;DHT22;13141;50.414;8.050;2023-05-16T13:35:28;24.30;68.00
25188;DHT22;13141;50.414;8.050;2023-05-16T13:37:54;23.90;66.10
25188;DHT22;13141;50.414;8.050;2023-05-16T13:40:20;23.30;64.90
25188;DHT22;13141;50.414;8.050;2023-05-16T13:42:45;22.80;64.30
25188;DHT22;13141;50.414;8.050;2023-05-16T13:47:46;21.90;64.50
25188;DHT22;13141;50.414;8.050;2023-05-16T13:50:13;21.80;64.70
25188;DHT22;13141;50.414;8.050;2023-05-16T13:52:39;21.80;69.10
25188;DHT22;13141;50.414;8.050;2023-05-16T13:55:05;21.60;64.80
25188;DHT22;13141;50.414;8.050;2023-05-16T13:57:31;21.40;65.60
25188;DHT22;13141;50.414;8.050;2023-05-16T13:59:57;21.30;67.90
25188;DHT22;13141;50.414;8.050;2023-05-16T14:02:23;21.20;68.70
25188;DHT22;13141;50.414;8.050;2023-05-16T14:04:48;20.70;67.80
25188;DHT22;13141;50.414;8.050;2023-05-16T14:07:15;21.00;68.40
25188;DHT22;13141;50.414;8.050;2023-05-16T14:09:41;20.90;69.90
25188;DHT22;13141;50.414;8.050;2023-05-16T14:12:07;20.80;66.10
25188;DHT22;13141;50.414;8.050;2023-05-16T14:14:33;20.70;69.20
25188;DHT22;13141;50.414;8.050;2023-05-16T14:16:58;20.50;67.80
25188;DHT22;13141;50.414;8.050;2023-05-16T14:19:24;20.40;68.60
25188;DHT22;13141;50.414;8.050;2023-05-16T14:21:50;20.40;71.90
25188;DHT22;13141;50.414;8.050;2023-05-16T14:24:17;20.30;71.40
25188;DHT22;13141;50.414;8.050;2023-05-16T14:26:42;20.30;70.90
25188;DHT22;13141;50.414;8.050;2023-05-16T14:29:08;20.20;72.60
25188;DHT22;13141;50.414;8.050;2023-05-16T14:31:33;20.20;71.30
25188;DHT22;13141;50.414;8.050;2023-05-16T14:33:59;20.20;73.90
25188;DHT22;13141;50.414;8.050;2023-05-16T14:36:25;20.20;72.60
25188;DHT22;13141;50.414;8.050;2023-05-16T14:38:50;20.10;73.10
25188;DHT22;13141;50.414;8.050;2023-05-16T14:41:17;20.00;72.40
25188;DHT22;13141;50.414;8.050;2023-05-16T14:43:43;20.00;73.40
25188;DHT22;13141;50.414;8.050;2023-05-16T14:46:09;19.90;72.40
25188;DHT22;13141;50.414;8.050;2023-05-16T14:48:35;19.90;71.50
25188;DHT22;13141;50.414;8.050;2023-05-16T14:51:01;19.80;72.10
25188;DHT22;13141;50.414;8.050;2023-05-16T14:53:26;19.90;74.00
25188;DHT22;13141;50.414;8.050;2023-05-16T14:55:52;19.90;72.20
25188;DHT22;13141;50.414;8.050;2023-05-16T14:58:19;19.80;71.20
25188;DHT22;13141;50.414;8.050;2023-05-16T15:00:45;20.10;72.20
25188;DHT22;13141;50.414;8.050;2023-05-16T15:03:10;19.90;73.10
25188;DHT22;13141;50.414;8.050;2023-05-16T15:05:36;19.90;72.30
25188;DHT22;13141;50.414;8.050;2023-05-16T15:08:02;19.80;73.50
25188;DHT22;13141;50.414;8.050;2023-05-16T15:10:27;19.70;73.60
25188;DHT22;13141;50.414;8.050;2023-05-16T15:12:53;19.60;71.80
25188;DHT22;13141;50.414;8.050;2023-05-16T15:15:20;19.50;72.00
25188;DHT22;13141;50.414;8.050;2023-05-16T15:17:45;19.40;73.60
25188;DHT22;13141;50.414;8.050;2023-05-16T15:20:12;19.20;73.10
25188;DHT22;13141;50.414;8.050;2023-05-16T15:22:38;19.20;73.10
25188;DHT22;13141;50.414;8.050;2023-05-16T15:25:05;19.10;74.00
25188;DHT22;13141;50.414;8.050;2023-05-16T15:27:31;19.00;75.30
25188;DHT22;13141;50.414;8.050;2023-05-16T15:29:57;19.00;75.00